Terminal Aerodrome Forecast
Issued by NWS Medford, OR

Home | Current Version | Previous Version | Text Only | Print | Product List | Glossary On
Versions: 1 2 3 4 5 6 7 8 9 10 11 12 13
000
FTUS46 KMFR 270534
TAFMFR
TAF
KMFR 270534Z 2706/2806 VRB03KT P6SM SKC
     FM272200 34012KT P6SM SKC
     FM280400 01005KT P6SM SKC=

USA.gov is the U.S. government's official web portal to all federal, state and local government web resources and services.